Time;durP1;ratioP1;P1;durP2;ratioP2;P2;SDS_P1;SDS_P2;PMS_P1;PMS_P2;Temp;Humidity;BMP_temperature;BMP_pressure;BME280_temperature;BME280_humidity;BME280_pressure;Samples;Min_cycle;Max_cycle;Signal;HPM_P1;HPM_P2
2023/09/26 00:01:41;;;;;;;13.30;8.80;;;;;;;17.76;67.55;101445.36;111836;1249;21985;-81
2023/09/26 00:04:20;;;;;;;10.60;9.40;;;;;;;17.69;67.69;101445.19;111397;1254;23727;-80
2023/09/26 00:06:57;;;;;;;12.80;9.60;;;;;;;17.63;67.97;101451.33;111291;1254;21980;-81
2023/09/26 00:09:33;;;;;;;11.00;8.40;;;;;;;17.57;68.24;101450.88;111254;1254;24360;-83
2023/09/26 00:12:26;;;;;;;11.40;8.90;;;;;;;17.52;68.32;101448.15;111402;1250;22449;-81
2023/09/26 00:14:59;;;;;;;10.10;8.90;;;;;;;17.48;68.56;101450.45;111818;1246;21969;-81
2023/09/26 00:17:42;;;;;;;12.30;9.30;;;;;;;17.40;68.75;101443.63;112608;1239;21943;-82
2023/09/26 00:20:37;;;;;;;11.20;9.60;;;;;;;17.34;68.99;101445.01;112323;1244;22047;-81
2023/09/26 00:23:11;;;;;;;12.80;10.00;;;;;;;17.28;69.15;101445.27;112545;1242;21974;-81
2023/09/26 00:25:55;;;;;;;11.80;9.40;;;;;;;17.23;69.24;101443.05;112476;1243;21959;-80
2023/09/26 00:28:47;;;;;;;10.10;9.20;;;;;;;17.19;69.33;101441.48;111839;1247;21974;-81
2023/09/26 00:31:30;;;;;;;12.50;9.50;;;;;;;17.14;69.55;101442.43;111751;1247;21967;-82
2023/09/26 00:34:35;;;;;;;12.20;10.20;;;;;;;17.08;69.75;101439.90;111960;1247;21952;-82
2023/09/26 00:37:26;;;;;;;12.30;10.00;;;;;;;17.03;69.93;101440.48;111838;1247;21951;-81
2023/09/26 00:40:16;;;;;;;14.20;9.70;;;;;;;17.01;70.12;101442.17;112164;1244;21983;-83
2023/09/26 00:42:58;;;;;;;10.30;9.30;;;;;;;17.00;70.34;101446.44;111531;1249;22149;-83
2023/09/26 00:45:49;;;;;;;11.10;10.00;;;;;;;16.98;70.50;101447.40;110983;1252;22572;-82
2023/09/26 00:48:54;;;;;;;;;;;;;;;;;;;;;
2023/09/26 00:51:48;;;;;;;11.50;10.10;;;;;;;16.92;70.49;101451.05;111711;1249;23016;-82
2023/09/26 00:54:54;;;;;;;12.90;11.20;;;;;;;16.86;70.20;101450.05;111550;1249;23743;-83
2023/09/26 00:57:38;;;;;;;11.70;10.40;;;;;;;16.80;70.12;101443.48;111795;1249;23642;-82
2023/09/26 01:00:30;;;;;;;14.10;11.00;;;;;;;16.73;70.13;101443.44;111868;1244;22980;-83
2023/09/26 01:04:27;;;;;;;20.00;14.70;;;;;;;16.64;70.49;101440.16;112543;1238;21962;-83
2023/09/26 01:07:36;;;;;;;14.70;12.80;;;;;;;16.59;70.82;101439.69;112284;1244;22173;-82
2023/09/26 01:10:30;;;;;;;13.00;11.70;;;;;;;16.55;71.13;101441.09;112254;1244;22448;-81
2023/09/26 01:13:05;;;;;;;12.70;11.20;;;;;;;16.57;71.33;101439.77;112418;1244;22974;-82
2023/09/26 01:15:49;;;;;;;13.70;12.30;;;;;;;16.58;71.17;101437.11;112398;1244;21980;-81
2023/09/26 01:18:29;;;;;;;18.50;13.60;;;;;;;16.55;71.24;101436.52;112224;1244;21961;-83
2023/09/26 01:21:45;;;;;;;15.80;12.50;;;;;;;16.49;71.52;101435.56;112318;1244;23620;-83
2023/09/26 01:24:36;;;;;;;;;;;;;;;;;;;;;
2023/09/26 01:27:35;;;;;;;14.20;12.80;;;;;;;16.43;71.64;101434.61;113241;1238;21945;-82
2023/09/26 01:30:48;;;;;;;;;;;;;;;;;;;;;
2023/09/26 01:34:09;;;;;;;14.90;13.40;;;;;;;16.33;72.00;101431.20;113049;1239;22017;-81
2023/09/26 01:37:22;;;;;;;15.90;14.30;;;;;;;16.30;72.15;101431.30;112200;1245;22106;-81
2023/09/26 01:40:28;;;;;;;16.40;14.80;;;;;;;16.28;72.24;101428.06;111659;1251;23697;-83
2023/09/26 01:43:02;;;;;;;16.20;14.70;;;;;;;16.28;72.20;101427.03;111472;1251;22003;-81
2023/09/26 01:46:47;;;;;;;;;;;;;;;;;;;;;
2023/09/26 01:50:15;;;;;;;15.30;13.60;;;;;;;16.23;72.52;101426.19;111514;1251;22008;-81
2023/09/26 01:53:13;;;;;;;19.70;15.20;;;;;;;16.20;72.65;101423.69;111906;1241;21968;-82
2023/09/26 01:55:45;;;;;;;16.20;14.70;;;;;;;16.20;72.64;101423.36;112717;1239;21949;-81
2023/09/26 01:58:27;;;;;;;17.00;15.50;;;;;;;16.22;72.69;101425.39;112310;1244;21986;-81
2023/09/26 02:01:05;;;;;;;18.80;16.10;;;;;;;16.23;72.82;101426.39;112212;1237;21941;-84
2023/09/26 02:03:48;;;;;;;19.50;17.40;;;;;;;16.21;72.81;101422.61;111911;1239;22040;-85
2023/09/26 02:06:29;;;;;;;17.90;15.90;;;;;;;16.20;72.76;101417.39;111967;1244;21943;-82
2023/09/26 02:08:59;;;;;;;17.30;15.60;;;;;;;16.18;72.82;101418.86;111881;1244;21954;-85
2023/09/26 02:11:37;;;;;;;18.20;16.40;;;;;;;16.15;73.00;101417.42;112446;1240;22859;-83
2023/09/26 02:14:11;;;;;;;15.40;14.10;;;;;;;16.13;73.02;101414.67;112931;1240;23626;-82
2023/09/26 02:17:10;;;;;;;17.20;15.40;;;;;;;16.10;73.05;101411.86;112863;1233;22351;-83
2023/09/26 02:19:58;;;;;;;15.80;14.30;;;;;;;16.04;73.24;101411.05;112578;1240;22036;-83
2023/09/26 02:23:13;;;;;;;;;;;;;;;;;;;;;
2023/09/26 02:26:20;;;;;;;17.50;15.90;;;;;;;15.97;73.63;101417.48;111543;1251;21988;-85
2023/09/26 02:29:07;;;;;;;16.50;15.20;;;;;;;15.92;73.71;101416.66;111537;1251;21971;-81
2023/09/26 02:32:06;;;;;;;20.30;18.30;;;;;;;15.90;73.83;101419.89;111558;1251;22481;-82
2023/09/26 02:35:21;;;;;;;20.90;19.00;;;;;;;15.89;73.96;101418.55;111466;1254;22062;-81
2023/09/26 02:38:32;;;;;;;19.70;18.10;;;;;;;15.88;73.99;101416.15;111442;1254;23794;-83
2023/09/26 02:41:25;;;;;;;20.30;17.60;;;;;;;15.85;74.17;101414.16;111673;1250;22986;-82
2023/09/26 02:44:03;;;;;;;20.90;19.10;;;;;;;15.85;74.32;101410.83;111778;1249;22708;-82
2023/09/26 02:46:48;;;;;;;;;;;;;;;;;;;;;
2023/09/26 02:49:30;;;;;;;21.30;19.40;;;;;;;15.83;74.33;101412.27;111460;1254;24430;-82
2023/09/26 02:52:43;;;;;;;22.70;20.70;;;;;;;15.81;74.52;101409.92;111532;1251;22089;-81
2023/09/26 02:55:47;;;;;;;23.10;20.90;;;;;;;15.73;74.55;101399.59;111644;1251;22726;-85
2023/09/26 02:58:32;;;;;;;22.00;19.70;;;;;;;15.78;74.56;101415.83;112416;1244;22729;-81
2023/09/26 03:01:31;;;;;;;20.70;19.00;;;;;;;15.75;74.63;101415.45;112533;1241;23663;-81
2023/09/26 03:04:24;;;;;;;22.50;20.40;;;;;;;15.71;74.67;101417.86;112742;1241;23465;-80
2023/09/26 03:07:26;;;;;;;24.00;21.10;;;;;;;15.67;74.81;101417.54;112224;1242;21985;-81
2023/09/26 03:10:40;;;;;;;;;;;;;;;;;;;;;
2023/09/26 03:13:40;;;;;;;22.70;20.70;;;;;;;15.60;75.05;101417.09;112727;1242;21986;-83
2023/09/26 03:16:39;;;;;;;22.20;20.20;;;;;;;15.59;75.08;101412.56;112621;1242;22016;-82
2023/09/26 03:19:40;;;;;;;;;;;;;;;;;;;;;
2023/09/26 03:22:25;;;;;;;22.80;20.50;;;;;;;15.52;75.08;101408.34;112249;1244;21986;-81
2023/09/26 03:25:01;;;;;;;22.90;21.00;;;;;;;15.48;75.15;101406.19;112474;1238;21959;-81
2023/09/26 03:28:03;;;;;;;23.90;21.70;;;;;;;15.45;75.27;101400.54;112960;1238;23474;-82
2023/09/26 03:30:36;;;;;;;23.90;21.80;;;;;;;15.47;75.34;101404.33;112611;1238;21993;-81
2023/09/26 03:33:21;;;;;;;27.30;24.60;;;;;;;15.46;75.32;101399.45;112576;1238;22087;-81
2023/09/26 03:36:06;;;;;;;26.10;24.00;;;;;;;15.42;75.47;101395.39;112602;1238;23668;-81
2023/09/26 03:38:38;;;;;;;24.40;22.40;;;;;;;15.40;75.51;101395.11;113273;1233;22386;-81
2023/09/26 03:41:16;;;;;;;23.20;21.00;;;;;;;15.39;75.50;101400.61;113249;1233;21947;-81
2023/09/26 03:44:34;;;;;;;;;;;;;;;;;;;;;
2023/09/26 03:47:30;;;;;;;21.80;19.90;;;;;;;15.30;75.79;101405.70;113727;1232;23669;-79
2023/09/26 03:50:46;;;;;;;;;;;;;;;;;;;;;
2023/09/26 03:53:21;;;;;;;21.20;19.40;;;;;;;15.25;75.93;101408.20;113060;1238;23904;-78
2023/09/26 03:56:11;;;;;;;23.20;18.90;;;;;;;15.24;75.97;101408.58;112883;1238;23026;-79
2023/09/26 03:58:50;;;;;;;20.70;18.90;;;;;;;15.23;76.12;101413.52;112715;1238;22200;-80
2023/09/26 04:01:25;;;;;;;20.90;18.80;;;;;;;15.23;76.09;101411.96;112913;1230;21946;-79
2023/09/26 04:04:23;;;;;;;19.40;17.80;;;;;;;15.22;76.15;101408.85;112570;1238;23676;-79
2023/09/26 04:07:27;;;;;;;19.60;17.60;;;;;;;15.17;76.35;101411.50;112605;1242;22978;-81
2023/09/26 04:10:19;;;;;;;21.60;19.40;;;;;;;15.17;76.47;101414.13;112313;1235;23021;-81
2023/09/26 04:16:35;;;;;;;22.30;20.20;;;;;;;15.19;76.85;101410.70;112434;1244;22004;-81
2023/09/26 04:19:12;;;;;;;22.90;20.70;;;;;;;15.23;76.99;101414.56;112241;1243;23578;-80
2023/09/26 04:22:07;;;;;;;21.00;19.30;;;;;;;15.29;77.02;101412.25;112065;1247;22011;-80
2023/09/26 04:26:14;;;;;;;23.20;21.20;;;;;;;15.32;76.95;101404.59;111864;1245;21988;-82
2023/09/26 04:28:50;;;;;;;23.70;21.60;;;;;;;15.32;76.99;101406.88;110743;1261;23099;-81
2023/09/26 04:31:31;;;;;;;24.30;22.00;;;;;;;15.38;77.10;101409.58;110633;1261;22730;-80
2023/09/26 04:34:08;;;;;;;22.60;20.60;;;;;;;15.43;77.19;101408.85;110652;1258;23583;-80
2023/09/26 04:37:29;;;;;;;22.70;20.40;;;;;;;15.45;77.18;101403.68;110628;1263;21971;-80
2023/09/26 04:40:10;;;;;;;23.70;21.50;;;;;;;15.48;77.07;101398.64;110368;1263;21982;-80
2023/09/26 04:42:51;;;;;;;23.10;20.90;;;;;;;15.51;77.11;101394.17;110642;1263;21983;-81
2023/09/26 04:45:50;;;;;;;23.50;21.50;;;;;;;15.54;77.02;101395.77;110411;1263;22591;-81
2023/09/26 04:48:31;;;;;;;23.50;21.00;;;;;;;15.56;77.10;101393.75;110868;1259;22006;-82
2023/09/26 04:51:26;;;;;;;;;;;;;;;;;;;;;
2023/09/26 04:53:59;;;;;;;23.10;20.90;;;;;;;15.65;77.20;101397.98;110934;1256;22852;-81
2023/09/26 04:56:35;;;;;;;22.00;19.90;;;;;;;15.72;77.25;101397.66;110831;1258;22297;-81
2023/09/26 04:59:15;;;;;;;24.40;21.80;;;;;;;15.77;77.26;101399.90;110686;1259;23050;-81
2023/09/26 05:02:38;;;;;;;22.70;20.80;;;;;;;15.83;77.03;101400.89;110704;1262;22489;-83
2023/09/26 05:05:42;;;;;;;22.60;20.60;;;;;;;15.83;76.96;101397.55;110568;1256;23633;-80
2023/09/26 05:08:37;;;;;;;25.10;23.00;;;;;;;15.85;77.02;101399.06;111256;1251;22420;-82
2023/09/26 05:11:33;;;;;;;24.70;22.50;;;;;;;15.89;76.80;101401.35;111513;1251;23108;-82
2023/09/26 05:14:12;;;;;;;24.30;21.90;;;;;;;15.93;76.84;101399.94;111796;1245;23674;-80
2023/09/26 05:19:55;;;;;;;23.00;20.80;;;;;;;15.97;76.68;101397.30;112153;1245;23024;-81
2023/09/26 05:22:31;;;;;;;22.80;20.70;;;;;;;16.01;76.78;101396.09;111744;1249;23032;-81
2023/09/26 05:25:41;;;;;;;23.30;21.00;;;;;;;16.06;76.88;101392.70;112493;1244;21971;-82
2023/09/26 05:28:38;;;;;;;23.00;20.90;;;;;;;16.10;76.91;101392.00;112523;1243;21961;-81
2023/09/26 05:31:44;;;;;;;22.20;20.10;;;;;;;16.14;76.87;101390.42;112990;1238;23007;-84
2023/09/26 05:35:06;;;;;;;21.70;19.80;;;;;;;16.17;76.83;101388.38;112495;1244;22022;-84
2023/09/26 05:38:43;;;;;;;23.50;20.70;;;;;;;16.22;77.02;101395.16;112520;1244;21952;-81
2023/09/26 05:41:17;;;;;;;24.20;19.30;;;;;;;16.25;77.07;101389.57;112492;1239;22699;-81
2023/09/26 05:43:52;;;;;;;21.70;19.50;;;;;;;16.39;76.96;101401.40;112841;1239;21946;-81
2023/09/26 05:46:52;;;;;;;21.90;19.00;;;;;;;16.45;76.82;101401.84;112675;1239;21938;-83
2023/09/26 05:49:52;;;;;;;21.00;18.90;;;;;;;16.48;76.79;101398.02;112795;1239;22727;-85
2023/09/26 05:53:10;;;;;;;20.10;18.10;;;;;;;16.54;76.73;101399.48;113139;1233;22034;-84
2023/09/26 05:56:44;;;;;;;24.90;20.30;;;;;;;16.55;76.85;101400.52;113753;1232;21962;-81
2023/09/26 05:59:55;;;;;;;;;;;;;;;;;;;;;
2023/09/26 06:03:40;;;;;;;;;;;;;;;;;;;;;
2023/09/26 06:08:30;;;;;;;19.40;17.50;;;;;;;16.68;76.76;101392.70;111901;1251;21962;-85
2023/09/26 06:12:55;;;;;;;18.80;16.70;;;;;;;16.70;76.94;101392.08;110819;1261;23121;-82
2023/09/26 06:16:59;;;;;;;19.90;17.80;;;;;;;16.78;77.16;101393.45;110911;1261;21992;-82
2023/09/26 06:24:31;;;;;;;18.30;16.70;;;;;;;16.92;76.99;101392.47;109373;1271;22005;-81
2023/09/26 06:27:59;;;;;;;17.80;16.00;;;;;;;17.02;76.94;101394.27;110124;1265;23078;-81
2023/09/26 06:31:47;;;;;;;;;;;;;;;;;;;;;
2023/09/26 06:35:38;;;;;;;19.40;17.50;;;;;;;17.21;76.66;101397.93;109598;1271;22034;-85
2023/09/26 06:39:40;;;;;;;;;;;;;;;;;;;;;
2023/09/26 06:43:08;;;;;;;19.50;17.60;;;;;;;17.43;76.66;101398.80;109309;1270;22003;-83
2023/09/26 06:46:43;;;;;;;21.40;17.00;;;;;;;17.53;76.38;101399.33;109527;1270;22483;-83
2023/09/26 06:50:14;;;;;;;18.30;16.60;;;;;;;17.66;76.37;101394.14;110078;1265;24327;-86
2023/09/26 06:53:51;;;;;;;;;;;;;;;;;;;;;
2023/09/26 06:57:15;;;;;;;;;;;;;;;;;;;;;
2023/09/26 07:00:38;;;;;;;;;;;;;;;;;;;;;
2023/09/26 07:04:13;;;;;;;20.60;18.40;;;;;;;18.21;75.05;101393.94;109603;1272;24323;-81
2023/09/26 07:07:51;;;;;;;19.80;17.80;;;;;;;18.25;74.56;101392.50;109443;1273;22766;-83
2023/09/26 07:10:44;;;;;;;20.80;18.60;;;;;;;18.32;74.28;101393.68;109420;1269;22256;-80
2023/09/26 07:13:27;;;;;;;20.10;18.20;;;;;;;18.42;73.80;101396.86;110041;1265;23679;-84
2023/09/26 07:19:54;;;;;;;21.20;19.20;;;;;;;18.49;73.46;101398.09;109354;1272;22177;-81
2023/09/26 07:23:02;;;;;;;20.90;18.80;;;;;;;18.54;72.99;101394.83;109337;1274;22028;-84
2023/09/26 07:25:59;;;;;;;24.30;21.80;;;;;;;18.61;72.95;101398.14;109214;1274;22767;-83
2023/09/26 07:29:13;;;;;;;;;;;;;;;;;;;;;
2023/09/26 07:32:12;;;;;;;20.40;18.20;;;;;;;18.87;72.86;101397.58;109749;1271;23629;-83
2023/09/26 07:35:46;;;;;;;21.60;18.00;;;;;;;19.16;71.64;101398.80;108017;1291;544190;-85
2023/09/26 07:38:43;;;;;;;22.40;18.50;;;;;;;19.18;71.41;101396.77;109888;1268;22001;-81
2023/09/26 07:42:33;;;;;;;20.00;17.90;;;;;;;19.21;71.14;101399.36;110736;1261;23102;-81
2023/09/26 07:45:53;;;;;;;20.20;17.30;;;;;;;19.25;70.82;101402.33;111021;1261;21965;-83
2023/09/26 07:49:24;;;;;;;25.40;17.90;;;;;;;19.33;70.82;101399.57;104030;1268;7938975;-83
2023/09/26 07:52:25;;;;;;;20.30;17.10;;;;;;;19.46;70.62;101406.77;110135;1267;23696;-82
2023/09/26 07:56:01;;;;;;;19.80;17.30;;;;;;;19.59;70.31;101408.45;109958;1264;23063;-84
2023/09/26 07:59:37;;;;;;;;;;;;;;;;;;;;;
2023/09/26 08:02:53;;;;;;;20.50;18.40;;;;;;;19.76;69.56;101413.35;108857;1282;22524;-80
2023/09/26 08:06:34;;;;;;;24.50;18.00;;;;;;;19.85;69.23;101414.02;108868;1282;22067;-81
2023/09/26 08:09:19;;;;;;;21.80;17.50;;;;;;;19.94;68.86;101417.23;108903;1282;22470;-82
2023/09/26 08:12:42;;;;;;;;;;;;;;;;;;;;;
2023/09/26 08:15:22;;;;;;;20.80;16.30;;;;;;;20.13;68.27;101411.12;108749;1281;22019;-82
2023/09/26 08:18:52;;;;;;;20.00;15.60;;;;;;;20.32;68.21;101415.59;108748;1283;22024;-82
2023/09/26 08:21:49;;;;;;;;;;;;;;;;;;;;;
2023/09/26 08:25:01;;;;;;;17.20;15.50;;;;;;;20.68;66.93;101415.85;108506;1288;21990;-82
2023/09/26 08:28:05;;;;;;;15.90;14.30;;;;;;;20.86;66.40;101416.13;108345;1285;23059;-82
2023/09/26 08:30:41;;;;;;;18.20;15.50;;;;;;;21.09;65.97;101410.59;108249;1287;22020;-82
2023/09/26 08:33:39;;;;;;;16.40;14.60;;;;;;;21.23;65.12;101406.10;108722;1281;22000;-82
2023/09/26 08:36:47;;;;;;;;;;;;;;;;;;;;;
2023/09/26 08:40:29;;;;;;;17.30;14.60;;;;;;;21.37;63.70;101405.73;109271;1275;23056;-83
2023/09/26 08:43:35;;;;;;;16.30;14.50;;;;;;;21.50;62.63;101403.14;109900;1268;21976;-84
2023/09/26 08:47:07;;;;;;;16.40;12.80;;;;;;;21.57;61.68;101398.95;109808;1272;21989;-84
2023/09/26 08:50:09;;;;;;;13.80;12.50;;;;;;;21.67;61.32;101396.66;110621;1265;21983;-84
2023/09/26 08:53:15;;;;;;;18.40;15.60;;;;;;;21.63;60.38;101395.14;110472;1262;23697;-79
2023/09/26 08:56:08;;;;;;;18.50;15.70;;;;;;;21.50;60.08;101396.21;110482;1265;21946;-82
2023/09/26 08:58:55;;;;;;;18.50;15.40;;;;;;;21.44;60.69;101398.52;110642;1260;21972;-81
2023/09/26 09:01:51;;;;;;;17.40;15.30;;;;;;;21.50;60.75;101397.60;110048;1256;23795;-80
2023/09/26 09:04:33;;;;;;;18.00;15.70;;;;;;;21.45;60.43;101399.52;110239;1267;22054;-80
2023/09/26 09:07:21;;;;;;;19.60;15.60;;;;;;;21.42;60.61;101396.89;109969;1267;21957;-79
2023/09/26 09:10:21;;;;;;;17.20;15.40;;;;;;;21.43;60.67;101395.75;109782;1270;22948;-81
2023/09/26 09:13:09;;;;;;;18.40;15.10;;;;;;;21.49;60.60;101394.31;109655;1270;22007;-80
2023/09/26 09:15:44;;;;;;;17.30;15.50;;;;;;;21.49;60.30;101393.61;109514;1270;23772;-79
2023/09/26 09:18:30;;;;;;;21.20;15.60;;;;;;;21.44;60.10;101390.43;110347;1265;22835;-80
2023/09/26 09:21:52;;;;;;;16.60;14.90;;;;;;;21.51;60.79;101388.55;110619;1260;21967;-81
2023/09/26 09:24:42;;;;;;;17.60;15.80;;;;;;;21.60;60.28;101386.00;110132;1260;24402;-80
2023/09/26 09:27:34;;;;;;;17.30;15.40;;;;;;;21.67;60.20;101388.84;110242;1261;21982;-80
2023/09/26 09:30:16;;;;;;;17.70;15.90;;;;;;;21.82;60.36;101387.49;110501;1262;23113;-80
2023/09/26 09:32:51;;;;;;;18.30;16.20;;;;;;;21.88;59.79;101387.21;110439;1261;22049;-78
2023/09/26 09:35:44;;;;;;;18.50;15.60;;;;;;;21.85;58.95;101389.24;110576;1261;23784;-80
2023/09/26 09:38:32;;;;;;;19.10;15.50;;;;;;;21.59;58.88;101378.58;110775;1261;21964;-80
2023/09/26 09:41:08;;;;;;;19.70;14.30;;;;;;;21.58;59.44;101382.02;110549;1261;23640;-79
2023/09/26 09:43:40;;;;;;;19.60;14.50;;;;;;;21.73;59.80;101379.80;110715;1260;24579;-79
2023/09/26 09:46:22;;;;;;;18.10;13.60;;;;;;;22.09;60.26;101378.86;110786;1260;23782;-81
2023/09/26 09:49:06;;;;;;;17.10;14.00;;;;;;;22.56;59.12;101376.98;110707;1260;22906;-80
2023/09/26 09:51:45;;;;;;;16.20;13.50;;;;;;;23.10;57.74;101377.35;110637;1259;22526;-80
2023/09/26 09:54:33;;;;;;;15.50;12.50;;;;;;;23.49;56.67;101376.36;110625;1260;23779;-79
2023/09/26 09:57:15;;;;;;;17.00;13.00;;;;;;;23.90;55.33;101377.14;110523;1260;22714;-79
2023/09/26 09:59:55;;;;;;;14.20;12.70;;;;;;;24.20;53.92;101374.81;110585;1264;22028;-80
2023/09/26 10:02:36;;;;;;;14.00;12.60;;;;;;;24.36;52.22;101370.85;110636;1260;23166;-79
2023/09/26 10:05:13;;;;;;;14.80;11.70;;;;;;;24.34;51.83;101370.84;110949;1259;22162;-79
2023/09/26 10:08:12;;;;;;;13.70;12.30;;;;;;;24.35;52.38;101369.73;110869;1260;22124;-80
2023/09/26 10:11:12;;;;;;;12.40;11.20;;;;;;;24.33;52.08;101365.91;110723;1260;23021;-79
2023/09/26 10:14:31;;;;;;;17.00;12.40;;;;;;;24.48;52.02;101360.34;110695;1260;21966;-79
2023/09/26 10:17:05;;;;;;;13.00;11.40;;;;;;;24.72;51.91;101363.00;110620;1254;23998;-83
2023/09/26 10:20:12;;;;;;;12.20;11.00;;;;;;;24.99;52.07;101361.15;111569;1254;22892;-80
2023/09/26 10:23:19;;;;;;;14.50;10.50;;;;;;;25.34;51.43;101357.16;111559;1254;21973;-79
2023/09/26 10:26:16;;;;;;;12.90;10.70;;;;;;;25.71;50.75;101354.78;110909;1260;22726;-83
2023/09/26 10:29:23;;;;;;;13.10;11.50;;;;;;;25.99;48.99;101349.91;111072;1260;22744;-80
2023/09/26 10:32:48;;;;;;;12.80;11.00;;;;;;;26.14;48.74;101347.48;111054;1260;23596;-82
2023/09/26 10:36:02;;;;;;;13.70;10.30;;;;;;;26.28;48.14;101348.05;110906;1260;22424;-83
2023/09/26 10:39:03;;;;;;;14.30;10.90;;;;;;;26.36;48.06;101348.42;111023;1257;23693;-88
2023/09/26 10:42:22;;;;;;;13.50;10.40;;;;;;;26.31;48.00;101336.91;110225;1260;21960;-84
2023/09/26 10:45:24;;;;;;;12.80;9.50;;;;;;;26.34;47.42;101337.71;110724;1261;23148;-84
2023/09/26 10:48:45;;;;;;;12.80;10.00;;;;;;;26.27;47.22;101335.64;110943;1260;21995;-82
2023/09/26 10:51:35;;;;;;;18.00;10.20;;;;;;;26.29;47.60;101335.33;109480;1273;23641;-82
2023/09/26 10:54:34;;;;;;;11.50;8.50;;;;;;;26.12;47.14;101325.25;109431;1274;22150;-81
2023/09/26 10:57:41;;;;;;;11.10;7.80;;;;;;;25.77;47.20;101329.80;109466;1273;22360;-81
2023/09/26 11:01:08;;;;;;;9.90;7.50;;;;;;;25.27;48.00;101325.71;109238;1276;23605;-80
2023/09/26 11:04:09;;;;;;;9.40;8.50;;;;;;;25.02;49.01;101330.13;109184;1276;22388;-81
2023/09/26 11:12:12;;;;;;;9.70;7.90;;;;;;;23.99;50.84;101326.71;108935;1271;22004;-81
2023/09/26 11:16:28;;;;;;;11.60;8.40;;;;;;;23.75;51.72;101323.73;108513;1289;22324;-80
2023/09/26 11:19:00;;;;;;;10.20;7.70;;;;;;;23.61;52.37;101323.71;108040;1295;22176;-84
2023/09/26 11:22:30;;;;;;;9.10;7.00;;;;;;;23.60;52.74;101321.84;107775;1295;22479;-81
2023/09/26 11:25:23;;;;;;;8.10;7.30;;;;;;;23.41;52.82;101316.61;107764;1294;23741;-81
2023/09/26 11:29:02;;;;;;;;;;;;;;;;;;;;;
2023/09/26 11:32:05;;;;;;;9.00;6.60;;;;;;;23.00;53.78;101317.02;107825;1293;22010;-85
2023/09/26 11:35:04;;;;;;;10.90;7.20;;;;;;;22.89;54.56;101313.91;107759;1294;22010;-81
2023/09/26 11:37:43;;;;;;;11.70;7.60;;;;;;;22.96;55.01;101306.79;107727;1288;22019;-81
2023/09/26 11:40:32;;;;;;;12.80;8.00;;;;;;;23.05;54.84;101307.46;108328;1286;21978;-83
2023/09/26 11:43:25;;;;;;;11.60;9.20;;;;;;;23.08;54.76;101309.69;108397;1288;24307;-82
2023/09/26 11:46:46;;;;;;;15.80;8.80;;;;;;;23.01;54.83;101306.48;108708;1280;22096;-82
2023/09/26 11:49:29;;;;;;;10.50;8.50;;;;;;;22.99;55.20;101304.85;108779;1277;21995;-82
2023/09/26 11:52:35;;;;;;;10.60;8.50;;;;;;;22.96;55.13;101297.60;109607;1268;21993;-81
2023/09/26 11:59:17;;;;;;;10.50;8.00;;;;;;;22.93;55.80;101293.55;110172;1267;22971;-82
2023/09/26 12:02:33;;;;;;;9.70;8.10;;;;;;;22.96;55.73;101289.27;110123;1267;22984;-82
2023/09/26 12:05:49;;;;;;;;;;;;;;;;;;;;;
2023/09/26 12:08:40;;;;;;;11.90;9.10;;;;;;;23.04;55.91;101285.48;109957;1266;21972;-85
2023/09/26 12:11:14;;;;;;;;;;;;;;;23.09;55.58;101289.73;110118;1266;21971;-79
2023/09/26 12:14:18;;;;;;;12.80;7.90;;;;;;;22.95;55.53;101288.27;109741;1271;21958;-82
2023/09/26 12:16:56;;;;;;;12.80;9.30;;;;;;;22.92;55.76;101288.14;109601;1270;23743;-81
2023/09/26 12:19:33;;;;;;;12.40;8.70;;;;;;;22.98;55.94;101286.65;109142;1275;21989;-80
2023/09/26 12:22:09;;;;;;;11.70;8.60;;;;;;;23.01;55.68;101286.77;109234;1274;22012;-80
2023/09/26 12:24:52;;;;;;;11.10;8.70;;;;;;;22.99;55.65;101288.02;109763;1268;24399;-82
2023/09/26 12:27:34;;;;;;;11.20;9.60;;;;;;;22.97;55.66;101285.28;109587;1269;22046;-81
2023/09/26 12:30:13;;;;;;;13.90;8.60;;;;;;;22.92;55.64;101282.45;109567;1273;22967;-81
2023/09/26 12:33:15;;;;;;;13.30;9.70;;;;;;;22.83;55.87;101279.55;109759;1269;22436;-82
2023/09/26 12:35:56;;;;;;;11.90;8.50;;;;;;;22.82;56.28;101277.31;109706;1267;22088;-81
2023/09/26 12:38:29;;;;;;;13.00;8.50;;;;;;;22.90;56.41;101277.49;109895;1268;22208;-79
2023/09/26 12:41:02;;;;;;;13.70;10.00;;;;;;;22.98;56.41;101273.45;109960;1268;23040;-80
2023/09/26 12:43:41;;;;;;;14.30;10.10;;;;;;;23.08;56.37;101270.83;109912;1268;21974;-81
2023/09/26 12:46:27;;;;;;;17.50;9.70;;;;;;;23.13;55.99;101273.23;109993;1268;22051;-81
2023/09/26 12:49:06;;;;;;;11.40;9.30;;;;;;;23.14;55.78;101272.97;110440;1261;22220;-81
2023/09/26 12:51:50;;;;;;;9.20;7.70;;;;;;;23.05;55.65;101261.83;110692;1261;22989;-81
2023/09/26 12:54:40;;;;;;;12.50;8.40;;;;;;;23.06;55.84;101267.42;110687;1261;21989;-81
2023/09/26 12:57:14;;;;;;;11.20;9.00;;;;;;;23.07;55.90;101268.61;110793;1255;23600;-80
2023/09/26 12:59:51;;;;;;;12.80;8.80;;;;;;;23.06;55.77;101266.89;111097;1255;22712;-81
2023/09/26 13:02:24;;;;;;;12.10;8.90;;;;;;;23.02;55.92;101262.16;111074;1255;23737;-80
2023/09/26 13:05:01;;;;;;;10.60;8.10;;;;;;;23.03;56.08;101261.05;111111;1255;21982;-81
2023/09/26 13:07:33;;;;;;;12.40;9.00;;;;;;;23.04;56.04;101260.10;111219;1255;23743;-82
2023/09/26 13:10:10;;;;;;;11.50;8.70;;;;;;;23.06;56.09;101258.88;111186;1255;23074;-81
2023/09/26 13:12:52;;;;;;;11.90;8.40;;;;;;;23.09;56.08;101256.34;111282;1255;21946;-80
2023/09/26 13:15:31;;;;;;;11.60;8.10;;;;;;;23.12;55.89;101252.41;111166;1255;22051;-81
2023/09/26 13:18:05;;;;;;;11.60;8.30;;;;;;;23.18;55.81;101255.98;111127;1255;21958;-81
2023/09/26 13:20:38;;;;;;;12.70;9.30;;;;;;;23.17;55.69;101252.58;111354;1255;21921;-81
2023/09/26 13:23:10;;;;;;;10.70;8.70;;;;;;;23.14;55.55;101247.29;110653;1260;21981;-81
2023/09/26 13:25:44;;;;;;;12.70;9.00;;;;;;;23.15;55.86;101246.67;110690;1260;21963;-81
2023/09/26 13:28:19;;;;;;;14.20;9.50;;;;;;;23.18;55.71;101245.89;110278;1264;24167;-80
2023/09/26 13:31:03;;;;;;;12.90;9.30;;;;;;;23.16;55.72;101244.65;110335;1264;21968;-81
2023/09/26 13:33:36;;;;;;;15.50;11.10;;;;;;;23.15;55.71;101242.94;110343;1263;23046;-81
2023/09/26 13:36:12;;;;;;;10.60;9.40;;;;;;;23.13;55.88;101233.36;109561;1269;21986;-82
2023/09/26 13:38:49;;;;;;;13.90;9.70;;;;;;;23.16;55.90;101238.60;109673;1270;23601;-80
2023/09/26 13:41:25;;;;;;;14.60;10.70;;;;;;;23.19;55.76;101240.15;109798;1261;21989;-82
2023/09/26 13:43:58;;;;;;;13.50;10.30;;;;;;;23.15;55.95;101237.21;109389;1274;23620;-81
2023/09/26 13:46:38;;;;;;;11.60;10.50;;;;;;;23.15;56.11;101237.09;109154;1273;23123;-82
2023/09/26 13:49:13;;;;;;;17.30;11.40;;;;;;;23.14;56.29;101233.27;109179;1273;23766;-83
2023/09/26 13:52:05;;;;;;;22.10;11.40;;;;;;;23.13;56.29;101234.38;109526;1273;21982;-80
2023/09/26 13:54:39;;;;;;;14.90;11.00;;;;;;;23.17;56.39;101231.58;109863;1266;23795;-82
2023/09/26 13:57:14;;;;;;;16.00;9.60;;;;;;;23.21;56.23;101232.55;109987;1266;22035;-82
2023/09/26 13:59:46;;;;;;;12.80;9.80;;;;;;;23.21;56.10;101230.42;109667;1266;21993;-81
2023/09/26 14:02:25;;;;;;;17.10;10.10;;;;;;;23.20;56.26;101225.73;110017;1266;21995;-82
2023/09/26 14:05:09;;;;;;;18.00;10.40;;;;;;;23.17;56.44;101223.27;110269;1266;22006;-82
2023/09/26 14:07:48;;;;;;;17.90;10.70;;;;;;;23.17;56.39;101226.79;110202;1255;22037;-82
2023/09/26 14:10:24;;;;;;;19.70;11.20;;;;;;;23.21;56.40;101228.13;111052;1255;23654;-83
2023/09/26 14:13:09;;;;;;;12.70;10.10;;;;;;;23.21;56.36;101222.06;111137;1255;22465;-81
2023/09/26 14:16:11;;;;;;;18.00;11.80;;;;;;;23.20;56.48;101224.30;111124;1256;22117;-79
2023/09/26 14:18:42;;;;;;;16.20;11.60;;;;;;;23.18;56.39;101224.25;110977;1256;23026;-82
2023/09/26 14:21:32;;;;;;;16.60;11.40;;;;;;;23.18;56.56;101224.60;111072;1256;22438;-79